sensor_id;sensor_type;location;lat;lon;timestamp;P1;durP1;ratioP1;P2;durP2;ratioP2
23470;SDS011;11908;50.806;4.424;2023-11-18T00:00:49;29.08;;;14.32;;
23470;SDS011;11908;50.806;4.424;2023-11-18T00:03:15;32.97;;;14.98;;
23470;SDS011;11908;50.806;4.424;2023-11-18T00:05:41;30.00;;;14.73;;
23470;SDS011;11908;50.806;4.424;2023-11-18T00:08:07;43.15;;;15.60;;
23470;SDS011;11908;50.806;4.424;2023-11-18T00:10:33;31.92;;;15.63;;
23470;SDS011;11908;50.806;4.424;2023-11-18T00:12:58;29.05;;;15.05;;
23470;SDS011;11908;50.806;4.424;2023-11-18T00:15:24;32.58;;;15.70;;
23470;SDS011;11908;50.806;4.424;2023-11-18T00:17:49;31.55;;;14.77;;
23470;SDS011;11908;50.806;4.424;2023-11-18T00:20:15;37.28;;;15.27;;
23470;SDS011;11908;50.806;4.424;2023-11-18T00:22:41;36.40;;;15.48;;
23470;SDS011;11908;50.806;4.424;2023-11-18T00:25:07;38.42;;;15.85;;
23470;SDS011;11908;50.806;4.424;2023-11-18T00:27:34;33.92;;;15.02;;
23470;SDS011;11908;50.806;4.424;2023-11-18T00:30:03;35.00;;;15.88;;
23470;SDS011;11908;50.806;4.424;2023-11-18T00:32:38;39.45;;;13.98;;
23470;SDS011;11908;50.806;4.424;2023-11-18T00:35:04;37.38;;;14.85;;
23470;SDS011;11908;50.806;4.424;2023-11-18T00:37:31;25.67;;;14.20;;
23470;SDS011;11908;50.806;4.424;2023-11-18T00:39:57;36.42;;;14.43;;
23470;SDS011;11908;50.806;4.424;2023-11-18T00:42:22;27.85;;;13.35;;
23470;SDS011;11908;50.806;4.424;2023-11-18T00:44:48;37.63;;;13.23;;
23470;SDS011;11908;50.806;4.424;2023-11-18T00:47:14;34.53;;;13.70;;
23470;SDS011;11908;50.806;4.424;2023-11-18T00:49:39;25.77;;;14.20;;
23470;SDS011;11908;50.806;4.424;2023-11-18T00:52:05;29.02;;;13.88;;
23470;SDS011;11908;50.806;4.424;2023-11-18T00:54:31;30.77;;;14.02;;
23470;SDS011;11908;50.806;4.424;2023-11-18T00:56:57;23.67;;;12.93;;
23470;SDS011;11908;50.806;4.424;2023-11-18T00:59:23;32.85;;;14.32;;
23470;SDS011;11908;50.806;4.424;2023-11-18T01:01:48;26.80;;;14.30;;
23470;SDS011;11908;50.806;4.424;2023-11-18T01:04:14;27.95;;;13.85;;
23470;SDS011;11908;50.806;4.424;2023-11-18T01:06:42;19.15;;;12.57;;
23470;SDS011;11908;50.806;4.424;2023-11-18T01:09:07;21.77;;;12.25;;
23470;SDS011;11908;50.806;4.424;2023-11-18T01:11:34;27.08;;;12.65;;
23470;SDS011;11908;50.806;4.424;2023-11-18T01:14:00;24.30;;;12.48;;
23470;SDS011;11908;50.806;4.424;2023-11-18T01:16:27;23.45;;;12.50;;
23470;SDS011;11908;50.806;4.424;2023-11-18T01:18:53;26.83;;;11.85;;
23470;SDS011;11908;50.806;4.424;2023-11-18T01:21:19;20.20;;;11.38;;
23470;SDS011;11908;50.806;4.424;2023-11-18T01:23:45;24.90;;;12.45;;
23470;SDS011;11908;50.806;4.424;2023-11-18T01:26:11;25.05;;;11.18;;
23470;SDS011;11908;50.806;4.424;2023-11-18T01:28:40;19.95;;;10.93;;
23470;SDS011;11908;50.806;4.424;2023-11-18T01:31:10;22.13;;;10.70;;
23470;SDS011;11908;50.806;4.424;2023-11-18T01:33:36;17.90;;;9.98;;
23470;SDS011;11908;50.806;4.424;2023-11-18T01:36:05;21.27;;;10.82;;
23470;SDS011;11908;50.806;4.424;2023-11-18T01:38:37;22.55;;;10.77;;
23470;SDS011;11908;50.806;4.424;2023-11-18T01:41:06;19.83;;;10.07;;
23470;SDS011;11908;50.806;4.424;2023-11-18T01:43:32;17.63;;;9.32;;
23470;SDS011;11908;50.806;4.424;2023-11-18T01:45:59;16.45;;;9.85;;
23470;SDS011;11908;50.806;4.424;2023-11-18T01:48:27;22.63;;;9.80;;
23470;SDS011;11908;50.806;4.424;2023-11-18T01:50:54;18.85;;;9.52;;
23470;SDS011;11908;50.806;4.424;2023-11-18T01:53:22;17.58;;;9.10;;
23470;SDS011;11908;50.806;4.424;2023-11-18T01:55:49;17.83;;;8.88;;
23470;SDS011;11908;50.806;4.424;2023-11-18T01:58:15;21.08;;;9.40;;
23470;SDS011;11908;50.806;4.424;2023-11-18T02:00:44;16.05;;;8.77;;
23470;SDS011;11908;50.806;4.424;2023-11-18T02:03:11;17.52;;;8.45;;
23470;SDS011;11908;50.806;4.424;2023-11-18T02:05:38;21.42;;;8.35;;
23470;SDS011;11908;50.806;4.424;2023-11-18T02:08:04;22.83;;;8.98;;
23470;SDS011;11908;50.806;4.424;2023-11-18T02:10:33;16.67;;;7.95;;
23470;SDS011;11908;50.806;4.424;2023-11-18T02:15:59;15.20;;;7.32;;
23470;SDS011;11908;50.806;4.424;2023-11-18T02:18:28;14.90;;;7.85;;
23470;SDS011;11908;50.806;4.424;2023-11-18T02:20:55;15.57;;;7.72;;
23470;SDS011;11908;50.806;4.424;2023-11-18T02:23:25;14.55;;;7.53;;
23470;SDS011;11908;50.806;4.424;2023-11-18T02:25:51;14.48;;;7.38;;
23470;SDS011;11908;50.806;4.424;2023-11-18T02:28:17;14.63;;;6.32;;
23470;SDS011;11908;50.806;4.424;2023-11-18T02:30:44;19.10;;;7.20;;
23470;SDS011;11908;50.806;4.424;2023-11-18T02:33:15;21.90;;;7.47;;
23470;SDS011;11908;50.806;4.424;2023-11-18T02:35:53;13.45;;;7.10;;
23470;SDS011;11908;50.806;4.424;2023-11-18T02:38:32;18.33;;;6.93;;
23470;SDS011;11908;50.806;4.424;2023-11-18T02:41:06;16.15;;;6.85;;
23470;SDS011;11908;50.806;4.424;2023-11-18T02:43:37;19.33;;;6.75;;
23470;SDS011;11908;50.806;4.424;2023-11-18T02:46:05;19.27;;;6.82;;
23470;SDS011;11908;50.806;4.424;2023-11-18T02:48:32;14.73;;;6.80;;
23470;SDS011;11908;50.806;4.424;2023-11-18T02:50:59;18.20;;;7.00;;
23470;SDS011;11908;50.806;4.424;2023-11-18T02:53:25;12.98;;;6.65;;
23470;SDS011;11908;50.806;4.424;2023-11-18T02:55:51;13.93;;;6.78;;
23470;SDS011;11908;50.806;4.424;2023-11-18T02:58:19;16.45;;;6.28;;
23470;SDS011;11908;50.806;4.424;2023-11-18T03:00:45;11.80;;;5.63;;
23470;SDS011;11908;50.806;4.424;2023-11-18T03:03:11;14.18;;;5.72;;
23470;SDS011;11908;50.806;4.424;2023-11-18T03:05:37;15.35;;;6.07;;
23470;SDS011;11908;50.806;4.424;2023-11-18T03:08:03;14.32;;;6.05;;
23470;SDS011;11908;50.806;4.424;2023-11-18T03:10:34;15.13;;;5.85;;
23470;SDS011;11908;50.806;4.424;2023-11-18T03:13:00;13.77;;;5.53;;
23470;SDS011;11908;50.806;4.424;2023-11-18T03:15:26;13.18;;;5.70;;
23470;SDS011;11908;50.806;4.424;2023-11-18T03:17:53;12.25;;;5.38;;
23470;SDS011;11908;50.806;4.424;2023-11-18T03:20:20;11.88;;;5.15;;
23470;SDS011;11908;50.806;4.424;2023-11-18T03:22:48;9.65;;;4.63;;
23470;SDS011;11908;50.806;4.424;2023-11-18T03:25:15;10.93;;;4.68;;
23470;SDS011;11908;50.806;4.424;2023-11-18T03:27:41;12.32;;;4.63;;
23470;SDS011;11908;50.806;4.424;2023-11-18T03:30:07;12.65;;;5.05;;
23470;SDS011;11908;50.806;4.424;2023-11-18T03:32:37;12.15;;;4.65;;
23470;SDS011;11908;50.806;4.424;2023-11-18T03:35:05;13.77;;;4.85;;
23470;SDS011;11908;50.806;4.424;2023-11-18T03:37:35;12.93;;;4.43;;
23470;SDS011;11908;50.806;4.424;2023-11-18T03:40:04;18.30;;;5.07;;
23470;SDS011;11908;50.806;4.424;2023-11-18T03:42:32;11.60;;;3.80;;
23470;SDS011;11908;50.806;4.424;2023-11-18T03:44:58;13.20;;;4.20;;
23470;SDS011;11908;50.806;4.424;2023-11-18T03:47:24;15.07;;;4.15;;
23470;SDS011;11908;50.806;4.424;2023-11-18T03:49:50;13.63;;;4.45;;
23470;SDS011;11908;50.806;4.424;2023-11-18T03:52:15;12.40;;;4.18;;
23470;SDS011;11908;50.806;4.424;2023-11-18T03:54:41;13.85;;;4.10;;
23470;SDS011;11908;50.806;4.424;2023-11-18T03:57:07;12.23;;;3.50;;
23470;SDS011;11908;50.806;4.424;2023-11-18T03:59:33;17.40;;;3.85;;
23470;SDS011;11908;50.806;4.424;2023-11-18T04:01:58;10.45;;;3.70;;
23470;SDS011;11908;50.806;4.424;2023-11-18T04:04:24;11.15;;;3.58;;
23470;SDS011;11908;50.806;4.424;2023-11-18T04:06:49;14.75;;;3.95;;
23470;SDS011;11908;50.806;4.424;2023-11-18T04:09:15;6.35;;;4.03;;
23470;SDS011;11908;50.806;4.424;2023-11-18T04:11:41;13.07;;;4.35;;
23470;SDS011;11908;50.806;4.424;2023-11-18T04:14:10;13.45;;;3.70;;
23470;SDS011;11908;50.806;4.424;2023-11-18T04:16:36;13.70;;;3.45;;
23470;SDS011;11908;50.806;4.424;2023-11-18T04:19:03;12.05;;;4.43;;
23470;SDS011;11908;50.806;4.424;2023-11-18T04:21:29;15.30;;;3.70;;
23470;SDS011;11908;50.806;4.424;2023-11-18T04:23:55;11.88;;;3.42;;
23470;SDS011;11908;50.806;4.424;2023-11-18T04:26:20;7.85;;;3.33;;
23470;SDS011;11908;50.806;4.424;2023-11-18T04:28:46;11.13;;;3.28;;
23470;SDS011;11908;50.806;4.424;2023-11-18T04:31:12;8.38;;;3.45;;
23470;SDS011;11908;50.806;4.424;2023-11-18T04:33:38;10.90;;;3.63;;
23470;SDS011;11908;50.806;4.424;2023-11-18T04:36:05;12.10;;;3.58;;
23470;SDS011;11908;50.806;4.424;2023-11-18T04:38:35;21.08;;;3.78;;
23470;SDS011;11908;50.806;4.424;2023-11-18T04:41:01;12.18;;;3.22;;
23470;SDS011;11908;50.806;4.424;2023-11-18T04:43:31;13.65;;;3.25;;
23470;SDS011;11908;50.806;4.424;2023-11-18T04:45:57;6.95;;;2.85;;
23470;SDS011;11908;50.806;4.424;2023-11-18T04:48:24;12.07;;;3.25;;
23470;SDS011;11908;50.806;4.424;2023-11-18T04:50:49;14.43;;;3.35;;
23470;SDS011;11908;50.806;4.424;2023-11-18T04:53:15;11.73;;;3.58;;
23470;SDS011;11908;50.806;4.424;2023-11-18T04:55:41;17.98;;;3.67;;
23470;SDS011;11908;50.806;4.424;2023-11-18T04:58:06;11.32;;;3.22;;
23470;SDS011;11908;50.806;4.424;2023-11-18T05:00:34;10.88;;;3.50;;
23470;SDS011;11908;50.806;4.424;2023-11-18T05:03:04;16.50;;;3.30;;
23470;SDS011;11908;50.806;4.424;2023-11-18T05:05:30;17.65;;;3.35;;
23470;SDS011;11908;50.806;4.424;2023-11-18T05:07:56;17.48;;;3.42;;
23470;SDS011;11908;50.806;4.424;2023-11-18T05:10:22;10.52;;;3.15;;
23470;SDS011;11908;50.806;4.424;2023-11-18T05:12:49;12.10;;;2.67;;
23470;SDS011;11908;50.806;4.424;2023-11-18T05:15:20;13.40;;;3.15;;
23470;SDS011;11908;50.806;4.424;2023-11-18T05:17:49;12.13;;;3.35;;
23470;SDS011;11908;50.806;4.424;2023-11-18T05:20:16;12.43;;;3.45;;
23470;SDS011;11908;50.806;4.424;2023-11-18T05:22:42;14.68;;;2.78;;
23470;SDS011;11908;50.806;4.424;2023-11-18T05:25:08;14.18;;;3.38;;
23470;SDS011;11908;50.806;4.424;2023-11-18T05:27:34;13.18;;;3.33;;
23470;SDS011;11908;50.806;4.424;2023-11-18T05:30:00;13.88;;;3.58;;
23470;SDS011;11908;50.806;4.424;2023-11-18T05:32:27;14.35;;;3.47;;
23470;SDS011;11908;50.806;4.424;2023-11-18T05:34:53;11.07;;;3.90;;
23470;SDS011;11908;50.806;4.424;2023-11-18T05:37:26;16.45;;;3.90;;
23470;SDS011;11908;50.806;4.424;2023-11-18T05:39:54;16.00;;;3.80;;
23470;SDS011;11908;50.806;4.424;2023-11-18T05:42:31;10.25;;;3.20;;
23470;SDS011;11908;50.806;4.424;2023-11-18T05:44:56;11.18;;;3.58;;
23470;SDS011;11908;50.806;4.424;2023-11-18T05:47:26;11.75;;;3.08;;
23470;SDS011;11908;50.806;4.424;2023-11-18T05:49:52;17.80;;;3.95;;
23470;SDS011;11908;50.806;4.424;2023-11-18T05:52:19;13.05;;;3.58;;
23470;SDS011;11908;50.806;4.424;2023-11-18T05:54:45;10.75;;;3.67;;
23470;SDS011;11908;50.806;4.424;2023-11-18T05:57:12;11.35;;;3.53;;
23470;SDS011;11908;50.806;4.424;2023-11-18T05:59:39;13.90;;;3.80;;
23470;SDS011;11908;50.806;4.424;2023-11-18T06:02:05;15.65;;;3.30;;
23470;SDS011;11908;50.806;4.424;2023-11-18T06:04:31;14.15;;;3.35;;
23470;SDS011;11908;50.806;4.424;2023-11-18T06:06:56;13.13;;;3.20;;
23470;SDS011;11908;50.806;4.424;2023-11-18T06:09:22;11.98;;;2.97;;
23470;SDS011;11908;50.806;4.424;2023-11-18T06:11:50;15.68;;;3.15;;
23470;SDS011;11908;50.806;4.424;2023-11-18T06:14:18;11.77;;;3.20;;
23470;SDS011;11908;50.806;4.424;2023-11-18T06:16:44;14.85;;;3.80;;
23470;SDS011;11908;50.806;4.424;2023-11-18T06:19:13;10.13;;;2.90;;
23470;SDS011;11908;50.806;4.424;2023-11-18T06:21:39;4.15;;;2.17;;
23470;SDS011;11908;50.806;4.424;2023-11-18T06:24:05;13.40;;;3.58;;
23470;SDS011;11908;50.806;4.424;2023-11-18T06:26:31;12.68;;;3.10;;
23470;SDS011;11908;50.806;4.424;2023-11-18T06:29:01;11.85;;;2.80;;
23470;SDS011;11908;50.806;4.424;2023-11-18T06:31:27;13.02;;;2.95;;
23470;SDS011;11908;50.806;4.424;2023-11-18T06:33:54;15.10;;;3.40;;
23470;SDS011;11908;50.806;4.424;2023-11-18T06:36:20;14.13;;;3.47;;
23470;SDS011;11908;50.806;4.424;2023-11-18T06:38:47;9.90;;;3.17;;
23470;SDS011;11908;50.806;4.424;2023-11-18T06:41:17;11.73;;;3.45;;
23470;SDS011;11908;50.806;4.424;2023-11-18T06:43:44;18.17;;;2.88;;
23470;SDS011;11908;50.806;4.424;2023-11-18T06:46:20;11.30;;;3.40;;
23470;SDS011;11908;50.806;4.424;2023-11-18T06:48:54;10.68;;;3.08;;
23470;SDS011;11908;50.806;4.424;2023-11-18T06:51:23;10.57;;;2.65;;
23470;SDS011;11908;50.806;4.424;2023-11-18T06:53:56;11.30;;;3.22;;
23470;SDS011;11908;50.806;4.424;2023-11-18T06:56:23;10.85;;;2.80;;
23470;SDS011;11908;50.806;4.424;2023-11-18T06:58:49;14.95;;;3.08;;
23470;SDS011;11908;50.806;4.424;2023-11-18T07:01:15;12.63;;;2.63;;
23470;SDS011;11908;50.806;4.424;2023-11-18T07:03:41;10.65;;;3.30;;
23470;SDS011;11908;50.806;4.424;2023-11-18T07:06:07;11.07;;;3.00;;
23470;SDS011;11908;50.806;4.424;2023-11-18T07:08:34;14.25;;;3.30;;
23470;SDS011;11908;50.806;4.424;2023-11-18T07:11:01;8.05;;;2.70;;
23470;SDS011;11908;50.806;4.424;2023-11-18T07:13:27;10.63;;;3.50;;
23470;SDS011;11908;50.806;4.424;2023-11-18T07:15:53;9.35;;;3.10;;
23470;SDS011;11908;50.806;4.424;2023-11-18T07:18:21;11.52;;;3.15;;
23470;SDS011;11908;50.806;4.424;2023-11-18T07:20:50;9.55;;;3.28;;
23470;SDS011;11908;50.806;4.424;2023-11-18T07:23:17;18.30;;;4.45;;
23470;SDS011;11908;50.806;4.424;2023-11-18T07:25:44;11.38;;;3.65;;
23470;SDS011;11908;50.806;4.424;2023-11-18T07:28:13;8.60;;;3.88;;
23470;SDS011;11908;50.806;4.424;2023-11-18T07:30:42;10.73;;;3.95;;
23470;SDS011;11908;50.806;4.424;2023-11-18T07:33:15;9.60;;;3.70;;
23470;SDS011;11908;50.806;4.424;2023-11-18T07:35:42;8.95;;;4.05;;
23470;SDS011;11908;50.806;4.424;2023-11-18T07:38:08;14.63;;;4.28;;
23470;SDS011;11908;50.806;4.424;2023-11-18T07:40:35;21.25;;;5.32;;
23470;SDS011;11908;50.806;4.424;2023-11-18T07:43:02;17.65;;;5.20;;
23470;SDS011;11908;50.806;4.424;2023-11-18T07:45:34;11.38;;;4.65;;
23470;SDS011;11908;50.806;4.424;2023-11-18T07:48:03;16.25;;;5.43;;
23470;SDS011;11908;50.806;4.424;2023-11-18T07:50:38;12.73;;;5.22;;
23470;SDS011;11908;50.806;4.424;2023-11-18T07:53:09;16.50;;;5.05;;
23470;SDS011;11908;50.806;4.424;2023-11-18T07:55:36;14.95;;;5.28;;
23470;SDS011;11908;50.806;4.424;2023-11-18T07:58:07;14.20;;;5.32;;
23470;SDS011;11908;50.806;4.424;2023-11-18T08:00:38;14.15;;;5.72;;
23470;SDS011;11908;50.806;4.424;2023-11-18T08:03:04;17.20;;;5.38;;
23470;SDS011;11908;50.806;4.424;2023-11-18T08:05:36;14.32;;;6.15;;
23470;SDS011;11908;50.806;4.424;2023-11-18T08:08:02;13.65;;;5.82;;
23470;SDS011;11908;50.806;4.424;2023-11-18T08:10:28;15.52;;;6.68;;
23470;SDS011;11908;50.806;4.424;2023-11-18T08:12:59;14.00;;;6.22;;
23470;SDS011;11908;50.806;4.424;2023-11-18T08:15:24;16.40;;;6.13;;
23470;SDS011;11908;50.806;4.424;2023-11-18T08:17:52;14.15;;;6.18;;
23470;SDS011;11908;50.806;4.424;2023-11-18T08:20:18;16.48;;;6.45;;
23470;SDS011;11908;50.806;4.424;2023-11-18T08:22:46;21.58;;;6.88;;
23470;SDS011;11908;50.806;4.424;2023-11-18T08:25:12;15.65;;;7.18;;
23470;SDS011;11908;50.806;4.424;2023-11-18T08:27:41;18.00;;;6.63;;
23470;SDS011;11908;50.806;4.424;2023-11-18T08:30:07;20.88;;;7.43;;
23470;SDS011;11908;50.806;4.424;2023-11-18T08:32:40;14.07;;;6.88;;
23470;SDS011;11908;50.806;4.424;2023-11-18T08:35:09;17.75;;;6.97;;
23470;SDS011;11908;50.806;4.424;2023-11-18T08:37:39;15.65;;;6.15;;
23470;SDS011;11908;50.806;4.424;2023-11-18T08:40:06;15.07;;;6.75;;
23470;SDS011;11908;50.806;4.424;2023-11-18T08:42:40;14.32;;;6.72;;
23470;SDS011;11908;50.806;4.424;2023-11-18T08:45:12;19.35;;;6.32;;
23470;SDS011;11908;50.806;4.424;2023-11-18T08:47:52;19.45;;;6.60;;
23470;SDS011;11908;50.806;4.424;2023-11-18T08:50:18;14.93;;;5.72;;
23470;SDS011;11908;50.806;4.424;2023-11-18T08:52:44;11.52;;;5.93;;
23470;SDS011;11908;50.806;4.424;2023-11-18T08:55:14;10.85;;;5.30;;
23470;SDS011;11908;50.806;4.424;2023-11-18T08:57:49;9.95;;;5.50;;
23470;SDS011;11908;50.806;4.424;2023-11-18T09:00:28;16.73;;;5.78;;
23470;SDS011;11908;50.806;4.424;2023-11-18T09:05:55;16.77;;;6.28;;
23470;SDS011;11908;50.806;4.424;2023-11-18T09:11:11;13.23;;;5.78;;
23470;SDS011;11908;50.806;4.424;2023-11-18T09:13:48;12.55;;;5.55;;
23470;SDS011;11908;50.806;4.424;2023-11-18T09:16:25;13.25;;;5.20;;
23470;SDS011;11908;50.806;4.424;2023-11-18T09:18:54;14.50;;;5.75;;
23470;SDS011;11908;50.806;4.424;2023-11-18T09:21:23;16.75;;;5.95;;
23470;SDS011;11908;50.806;4.424;2023-11-18T09:23:50;14.95;;;5.45;;
23470;SDS011;11908;50.806;4.424;2023-11-18T09:26:16;12.98;;;5.15;;
23470;SDS011;11908;50.806;4.424;2023-11-18T09:28:42;10.10;;;5.45;;
23470;SDS011;11908;50.806;4.424;2023-11-18T09:31:10;13.73;;;5.80;;
23470;SDS011;11908;50.806;4.424;2023-11-18T09:33:37;14.27;;;5.90;;
23470;SDS011;11908;50.806;4.424;2023-11-18T09:36:07;15.88;;;5.75;;
23470;SDS011;11908;50.806;4.424;2023-11-18T09:38:37;11.43;;;5.22;;
23470;SDS011;11908;50.806;4.424;2023-11-18T09:41:08;11.07;;;5.68;;
23470;SDS011;11908;50.806;4.424;2023-11-18T09:43:38;8.73;;;5.40;;
23470;SDS011;11908;50.806;4.424;2023-11-18T09:46:12;15.05;;;5.65;;
23470;SDS011;11908;50.806;4.424;2023-11-18T09:48:47;9.10;;;5.15;;
23470;SDS011;11908;50.806;4.424;2023-11-18T09:51:21;11.52;;;5.32;;
23470;SDS011;11908;50.806;4.424;2023-11-18T09:53:52;8.43;;;5.35;;
23470;SDS011;11908;50.806;4.424;2023-11-18T09:58:54;11.50;;;5.78;;
23470;SDS011;11908;50.806;4.424;2023-11-18T10:01:28;11.02;;;5.28;;
23470;SDS011;11908;50.806;4.424;2023-11-18T10:03:59;10.20;;;5.07;;
23470;SDS011;11908;50.806;4.424;2023-11-18T10:06:31;11.43;;;5.43;;
23470;SDS011;11908;50.806;4.424;2023-11-18T10:08:59;10.02;;;5.50;;
23470;SDS011;11908;50.806;4.424;2023-11-18T10:11:40;11.98;;;4.80;;
23470;SDS011;11908;50.806;4.424;2023-11-18T10:14:06;10.30;;;5.50;;
23470;SDS011;11908;50.806;4.424;2023-11-18T10:16:33;12.75;;;5.40;;
23470;SDS011;11908;50.806;4.424;2023-11-18T10:18:59;13.20;;;5.57;;
23470;SDS011;11908;50.806;4.424;2023-11-18T10:21:36;10.32;;;5.22;;
23470;SDS011;11908;50.806;4.424;2023-11-18T10:24:04;8.60;;;5.07;;
23470;SDS011;11908;50.806;4.424;2023-11-18T10:26:39;10.82;;;4.82;;
23470;SDS011;11908;50.806;4.424;2023-11-18T10:29:07;10.05;;;4.82;;
23470;SDS011;11908;50.806;4.424;2023-11-18T10:31:34;11.38;;;4.95;;
23470;SDS011;11908;50.806;4.424;2023-11-18T10:34:00;6.82;;;4.72;;
23470;SDS011;11908;50.806;4.424;2023-11-18T10:36:26;11.48;;;5.32;;
23470;SDS011;11908;50.806;4.424;2023-11-18T10:38:52;9.05;;;4.80;;
23470;SDS011;11908;50.806;4.424;2023-11-18T10:41:20;8.18;;;4.57;;
23470;SDS011;11908;50.806;4.424;2023-11-18T10:43:47;8.43;;;4.72;;
23470;SDS011;11908;50.806;4.424;2023-11-18T10:46:14;10.82;;;4.53;;
23470;SDS011;11908;50.806;4.424;2023-11-18T10:48:44;8.27;;;4.43;;
23470;SDS011;11908;50.806;4.424;2023-11-18T10:51:12;8.88;;;4.50;;
23470;SDS011;11908;50.806;4.424;2023-11-18T10:53:44;8.00;;;4.00;;
23470;SDS011;11908;50.806;4.424;2023-11-18T10:56:23;7.45;;;3.97;;
23470;SDS011;11908;50.806;4.424;2023-11-18T10:59:04;8.15;;;4.10;;
23470;SDS011;11908;50.806;4.424;2023-11-18T11:01:34;8.73;;;4.05;;
23470;SDS011;11908;50.806;4.424;2023-11-18T11:04:07;8.43;;;3.92;;
23470;SDS011;11908;50.806;4.424;2023-11-18T11:06:40;9.60;;;3.85;;
23470;SDS011;11908;50.806;4.424;2023-11-18T11:09:07;5.95;;;3.40;;
23470;SDS011;11908;50.806;4.424;2023-11-18T11:11:46;7.40;;;3.70;;
23470;SDS011;11908;50.806;4.424;2023-11-18T11:14:15;6.40;;;3.15;;
23470;SDS011;11908;50.806;4.424;2023-11-18T11:16:45;5.70;;;3.00;;
23470;SDS011;11908;50.806;4.424;2023-11-18T11:22:01;6.57;;;2.20;;
23470;SDS011;11908;50.806;4.424;2023-11-18T11:27:33;3.05;;;2.30;;
23470;SDS011;11908;50.806;4.424;2023-11-18T11:30:31;5.28;;;2.08;;
23470;SDS011;11908;50.806;4.424;2023-11-18T11:33:20;4.75;;;2.15;;
23470;SDS011;11908;50.806;4.424;2023-11-18T11:35:55;2.60;;;1.85;;
23470;SDS011;11908;50.806;4.424;2023-11-18T11:38:22;4.38;;;1.70;;
23470;SDS011;11908;50.806;4.424;2023-11-18T11:40:49;3.53;;;1.90;;
23470;SDS011;11908;50.806;4.424;2023-11-18T11:43:17;2.75;;;1.95;;
23470;SDS011;11908;50.806;4.424;2023-11-18T11:45:53;3.72;;;1.42;;
23470;SDS011;11908;50.806;4.424;2023-11-18T11:48:21;2.33;;;1.67;;
23470;SDS011;11908;50.806;4.424;2023-11-18T11:53:40;4.50;;;1.60;;
23470;SDS011;11908;50.806;4.424;2023-11-18T11:56:17;4.25;;;1.52;;
23470;SDS011;11908;50.806;4.424;2023-11-18T11:58:51;2.05;;;1.33;;
23470;SDS011;11908;50.806;4.424;2023-11-18T12:01:21;5.57;;;1.30;;
23470;SDS011;11908;50.806;4.424;2023-11-18T12:03:58;3.55;;;1.85;;
23470;SDS011;11908;50.806;4.424;2023-11-18T12:06:26;3.03;;;1.15;;
23470;SDS011;11908;50.806;4.424;2023-11-18T12:08:53;3.28;;;1.38;;
23470;SDS011;11908;50.806;4.424;2023-11-18T12:11:20;1.23;;;0.95;;
23470;SDS011;11908;50.806;4.424;2023-11-18T12:14:00;3.05;;;1.60;;
23470;SDS011;11908;50.806;4.424;2023-11-18T12:19:36;4.07;;;1.15;;
23470;SDS011;11908;50.806;4.424;2023-11-18T12:22:16;3.67;;;1.35;;
23470;SDS011;11908;50.806;4.424;2023-11-18T12:30:05;1.38;;;1.10;;
23470;SDS011;11908;50.806;4.424;2023-11-18T12:35:49;2.05;;;1.33;;
23470;SDS011;11908;50.806;4.424;2023-11-18T12:47:03;1.70;;;1.25;;
23470;SDS011;11908;50.806;4.424;2023-11-18T12:49:42;2.35;;;1.10;;
23470;SDS011;11908;50.806;4.424;2023-11-18T12:52:08;2.00;;;1.20;;
23470;SDS011;11908;50.806;4.424;2023-11-18T12:54:40;1.00;;;0.90;;
23470;SDS011;11908;50.806;4.424;2023-11-18T12:57:09;2.03;;;1.00;;
23470;SDS011;11908;50.806;4.424;2023-11-18T12:59:39;1.05;;;0.95;;
23470;SDS011;11908;50.806;4.424;2023-11-18T13:02:08;3.08;;;1.48;;
23470;SDS011;11908;50.806;4.424;2023-11-18T13:04:39;1.57;;;0.90;;
23470;SDS011;11908;50.806;4.424;2023-11-18T13:07:05;1.25;;;1.00;;
23470;SDS011;11908;50.806;4.424;2023-11-18T13:09:36;2.50;;;1.10;;
23470;SDS011;11908;50.806;4.424;2023-11-18T13:12:03;2.13;;;0.70;;
23470;SDS011;11908;50.806;4.424;2023-11-18T13:14:31;3.50;;;1.23;;
23470;SDS011;11908;50.806;4.424;2023-11-18T13:17:10;2.60;;;1.08;;
23470;SDS011;11908;50.806;4.424;2023-11-18T13:19:37;3.35;;;2.05;;
23470;SDS011;11908;50.806;4.424;2023-11-18T13:22:03;1.60;;;1.45;;
23470;SDS011;11908;50.806;4.424;2023-11-18T13:24:40;3.72;;;1.25;;
23470;SDS011;11908;50.806;4.424;2023-11-18T13:27:09;2.10;;;1.23;;
23470;SDS011;11908;50.806;4.424;2023-11-18T13:29:36;1.30;;;0.80;;
23470;SDS011;11908;50.806;4.424;2023-11-18T13:32:05;5.43;;;3.38;;
23470;SDS011;11908;50.806;4.424;2023-11-18T13:34:32;2.65;;;2.10;;
23470;SDS011;11908;50.806;4.424;2023-11-18T13:37:02;4.00;;;2.60;;
23470;SDS011;11908;50.806;4.424;2023-11-18T13:39:29;2.85;;;1.77;;
23470;SDS011;11908;50.806;4.424;2023-11-18T13:41:56;2.55;;;1.20;;
23470;SDS011;11908;50.806;4.424;2023-11-18T13:44:35;5.10;;;3.50;;
23470;SDS011;11908;50.806;4.424;2023-11-18T13:47:07;10.55;;;6.60;;
23470;SDS011;11908;50.806;4.424;2023-11-18T13:49:36;4.00;;;2.60;;
23470;SDS011;11908;50.806;4.424;2023-11-18T13:52:05;1.88;;;1.30;;
23470;SDS011;11908;50.806;4.424;2023-11-18T13:54:36;3.22;;;2.10;;
23470;SDS011;11908;50.806;4.424;2023-11-18T13:57:03;5.78;;;3.92;;
23470;SDS011;11908;50.806;4.424;2023-11-18T13:59:30;3.40;;;2.58;;
23470;SDS011;11908;50.806;4.424;2023-11-18T14:01:57;9.05;;;6.28;;
23470;SDS011;11908;50.806;4.424;2023-11-18T14:04:27;2.00;;;1.70;;
23470;SDS011;11908;50.806;4.424;2023-11-18T14:06:57;2.60;;;1.80;;
23470;SDS011;11908;50.806;4.424;2023-11-18T14:09:34;2.55;;;1.98;;
23470;SDS011;11908;50.806;4.424;2023-11-18T14:12:10;2.72;;;1.83;;
23470;SDS011;11908;50.806;4.424;2023-11-18T14:14:37;2.53;;;1.50;;
23470;SDS011;11908;50.806;4.424;2023-11-18T14:17:06;2.45;;;1.08;;
23470;SDS011;11908;50.806;4.424;2023-11-18T14:19:34;4.03;;;2.15;;
23470;SDS011;11908;50.806;4.424;2023-11-18T14:22:01;4.07;;;2.42;;
23470;SDS011;11908;50.806;4.424;2023-11-18T14:24:31;6.05;;;4.03;;
23470;SDS011;11908;50.806;4.424;2023-11-18T14:26:59;2.08;;;1.00;;
23470;SDS011;11908;50.806;4.424;2023-11-18T14:29:25;1.23;;;1.10;;
23470;SDS011;11908;50.806;4.424;2023-11-18T14:31:52;1.77;;;1.08;;
23470;SDS011;11908;50.806;4.424;2023-11-18T14:34:19;3.22;;;1.60;;
23470;SDS011;11908;50.806;4.424;2023-11-18T14:36:45;3.25;;;1.40;;
23470;SDS011;11908;50.806;4.424;2023-11-18T14:39:10;1.55;;;1.05;;
23470;SDS011;11908;50.806;4.424;2023-11-18T14:41:38;4.00;;;2.53;;
23470;SDS011;11908;50.806;4.424;2023-11-18T14:44:05;6.47;;;4.47;;
23470;SDS011;11908;50.806;4.424;2023-11-18T14:46:34;5.88;;;4.03;;
23470;SDS011;11908;50.806;4.424;2023-11-18T14:49:00;2.67;;;2.10;;
23470;SDS011;11908;50.806;4.424;2023-11-18T14:51:26;2.80;;;2.35;;
23470;SDS011;11908;50.806;4.424;2023-11-18T14:53:51;3.97;;;2.22;;
23470;SDS011;11908;50.806;4.424;2023-11-18T14:56:18;3.67;;;1.75;;
23470;SDS011;11908;50.806;4.424;2023-11-18T14:58:44;4.88;;;2.20;;
23470;SDS011;11908;50.806;4.424;2023-11-18T15:01:14;1.40;;;1.08;;
23470;SDS011;11908;50.806;4.424;2023-11-18T15:03:40;1.50;;;1.27;;
23470;SDS011;11908;50.806;4.424;2023-11-18T15:06:06;2.22;;;1.05;;
23470;SDS011;11908;50.806;4.424;2023-11-18T15:08:32;1.10;;;1.00;;
23470;SDS011;11908;50.806;4.424;2023-11-18T15:10:58;2.03;;;1.30;;
23470;SDS011;11908;50.806;4.424;2023-11-18T15:13:24;3.47;;;2.75;;
23470;SDS011;11908;50.806;4.424;2023-11-18T15:15:50;7.55;;;4.20;;
23470;SDS011;11908;50.806;4.424;2023-11-18T15:18:15;5.88;;;1.88;;
23470;SDS011;11908;50.806;4.424;2023-11-18T15:20:44;3.22;;;2.35;;
23470;SDS011;11908;50.806;4.424;2023-11-18T15:23:14;1.58;;;1.48;;
23470;SDS011;11908;50.806;4.424;2023-11-18T15:25:47;4.32;;;3.10;;